Overview Statistics Trail Chart Weather Telemetry Raw packets
 

This is the latest recevied weather packets stored in our database for station/object HOWARD. If no packets are shown the sender has not sent any weather packets the latest 10 day(s).

<< 14 15 16 17 18 19 20 >>
Time Temp. Humidity Pressure Rain* Wind** Luminosity Snow
1788429285 2.22° C 89% 1006.1 hPa 0.25 mm - - -
1788428685 2.22° C 89% 1006 hPa 0.25 mm - - -
1788428085 1.67° C 89% 1006 hPa 0.25 mm - - -
1788427485 2.22° C 89% 1006.6 hPa 0.25 mm - - -
1788426885 2.22° C 88% 1006.6 hPa 0.25 mm - - -
1788426285 2.22° C 88% 1006.7 hPa 0 mm - - -
1788425685 2.22° C 88% 1006.5 hPa 0 mm - - -
1788425085 2.22° C 88% 1006.5 hPa 0 mm - - -
1788424485 2.22° C 88% 1006.5 hPa 0 mm - - -
1788423885 2.22° C 87% 1006.4 hPa 0.25 mm - - -
1788423495 2.22° C 87% 1006.4 hPa 0.25 mm - - -
1788423285 2.22° C 87% 1006.4 hPa 0.25 mm - - -
1788422685 2.22° C 88% 1006.4 hPa 0.25 mm - - -
1788422085 2.22° C 87% 1006.4 hPa 0.25 mm - - -
1788421485 2.22° C 88% 1006.5 hPa 0.25 mm - - -
1788420885 2.22° C 88% 1006.6 hPa 0.25 mm - - -
1788420285 2.22° C 87% 1006.5 hPa 0 mm - - -
1788419685 2.22° C 87% 1006.4 hPa 0 mm - - -
1788419085 3.33° C 87% 1007.1 hPa 0 mm - - -
1788418628 2.22° C 87% 1006.9 hPa 0 mm - - -
1788418485 2.22° C 87% 1006.9 hPa 0 mm - - -
1788417885 2.22° C 87% 1006.9 hPa 0 mm - - -
1788417285 2.22° C 86% 1006.9 hPa 0 mm - - -
1788416685 2.78° C 86% 1006.8 hPa 0 mm - - -
1788416085 2.78° C 86% 1006.8 hPa 0 mm - - -

* Rain latest hour (hover to see other rain measurements)
** Current wind speed in m/s (hover to see current wind gust speed)